Terminal Aerodrome Forecast
Issued by NWS Chicago, IL

Home | Current Version | Previous Version | Graphics & Text | Print | Product List | Glossary On
Versions: 1 2 3 4 5 6 7 8 9 10 11 12 13 14 15 16 17 18 19 20 21 22 23 24 25
723
FTUS43 KLOT 242102 AAB
TAFRFD
TAF AMD
KRFD 242102Z 2421/2518 24010G15KT P6SM FEW025
     FM250000 23006KT P6SM FEW035 BKN250
     FM250400 VRB03KT P6SM VCTS SCT025CB OVC035
     FM250600 24008KT 6SM SHRA BR VCTS BKN025CB OVC050
      TEMPO 2509/2513 3SM TSRA BR BKN015CB
     FM251400 30007KT 6SM BR VCSH SCT025 BKN060=

USA.gov is the U.S. government's official web portal to all federal, state and local government web resources and services.